createdAt,value
2022-08-24T00:01:01.372Z,18.55
2022-08-24T00:03:30.778Z,18.52
2022-08-24T00:06:02.272Z,18.47
2022-08-24T00:08:28.957Z,18.44
2022-08-24T00:10:55.520Z,18.39
2022-08-24T00:13:22.063Z,18.36
2022-08-24T00:15:49.764Z,18.31
2022-08-24T00:18:16.407Z,18.27
2022-08-24T00:20:45.243Z,18.23
2022-08-24T00:23:12.419Z,18.20
2022-08-24T00:25:38.925Z,18.17
2022-08-24T00:28:06.178Z,18.13
2022-08-24T00:30:34.176Z,18.09
2022-08-24T00:33:02.119Z,18.04
2022-08-24T00:35:28.882Z,18.01
2022-08-24T00:37:57.078Z,17.97
2022-08-24T00:40:30.635Z,17.92
2022-08-24T00:43:03.239Z,17.89
2022-08-24T00:45:33.903Z,17.84
2022-08-24T00:48:06.317Z,17.80
2022-08-24T00:50:40.520Z,17.74
2022-08-24T00:53:16.163Z,17.71
2022-08-24T00:55:48.157Z,17.69
2022-08-24T00:58:23.680Z,17.65
2022-08-24T01:00:56.724Z,17.62
2022-08-24T01:03:24.182Z,17.60
2022-08-24T01:05:50.747Z,17.57
2022-08-24T01:08:17.245Z,17.53
2022-08-24T01:10:49.163Z,17.49
2022-08-24T01:13:16.861Z,17.46
2022-08-24T01:15:47.884Z,17.44
2022-08-24T01:18:39.178Z,17.42
2022-08-24T01:21:14.668Z,17.38
2022-08-24T01:23:48.555Z,17.34
2022-08-24T01:26:21.033Z,17.31
2022-08-24T01:28:51.044Z,17.27
2022-08-24T01:31:20.807Z,17.22
2022-08-24T01:33:50.417Z,17.19
2022-08-24T01:36:38.797Z,17.16
2022-08-24T01:39:13.731Z,17.12
2022-08-24T01:41:40.602Z,17.09
2022-08-24T01:44:07.757Z,17.05
2022-08-24T01:46:34.855Z,17.00
2022-08-24T01:49:02.023Z,16.97
2022-08-24T01:51:33.126Z,16.93
2022-08-24T01:54:02.817Z,16.90
2022-08-24T01:56:31.026Z,16.88
2022-08-24T01:59:00.197Z,16.84
2022-08-24T02:01:29.107Z,16.81
2022-08-24T02:03:58.454Z,16.76
2022-08-24T02:06:27.197Z,16.72
2022-08-24T02:08:53.913Z,16.68
2022-08-24T02:11:20.410Z,16.65
2022-08-24T02:13:47.414Z,16.63
2022-08-24T02:16:14.867Z,16.60
2022-08-24T02:18:42.210Z,16.59
2022-08-24T02:21:09.881Z,16.57
2022-08-24T02:23:37.871Z,16.57
2022-08-24T02:26:06.154Z,16.55
2022-08-24T02:28:33.143Z,16.53
2022-08-24T02:31:01.119Z,16.51
2022-08-24T02:33:29.959Z,16.49
2022-08-24T02:35:57.068Z,16.48
2022-08-24T02:38:23.816Z,16.46
2022-08-24T02:40:50.433Z,16.44
2022-08-24T02:43:17.566Z,16.42
2022-08-24T02:45:50.199Z,16.40
2022-08-24T02:48:18.760Z,16.40
2022-08-24T02:50:49.021Z,16.37
2022-08-24T02:53:17.217Z,16.34
2022-08-24T02:55:44.757Z,16.30
2022-08-24T02:58:16.438Z,16.28
2022-08-24T03:00:47.302Z,16.27
2022-08-24T03:03:16.309Z,16.25
2022-08-24T03:05:42.939Z,16.22
2022-08-24T03:08:09.534Z,16.19
2022-08-24T03:10:36.265Z,16.17
2022-08-24T03:13:04.594Z,16.15
2022-08-24T03:15:31.363Z,16.12
2022-08-24T03:17:57.957Z,16.11
2022-08-24T03:20:25.715Z,16.07
2022-08-24T03:22:52.952Z,16.04
2022-08-24T03:25:24.445Z,15.98
2022-08-24T03:27:52.036Z,15.94
2022-08-24T03:30:18.815Z,15.92
2022-08-24T03:32:47.319Z,15.88
2022-08-24T03:35:15.322Z,15.84
2022-08-24T03:37:42.366Z,15.83
2022-08-24T03:40:22.344Z,15.81
2022-08-24T03:42:53.495Z,15.78
2022-08-24T03:45:21.526Z,15.75
2022-08-24T03:47:48.372Z,15.73
2022-08-24T03:50:14.940Z,15.71
2022-08-24T03:52:41.903Z,15.67
2022-08-24T03:55:10.080Z,15.65
2022-08-24T03:57:36.836Z,15.63
2022-08-24T04:00:10.770Z,15.61
2022-08-24T04:02:44.379Z,15.58
2022-08-24T04:05:15.829Z,15.57
2022-08-24T04:07:42.395Z,15.55
2022-08-24T04:10:09.343Z,15.54
2022-08-24T04:12:35.839Z,15.53
2022-08-24T04:15:03.349Z,15.52
2022-08-24T04:17:30.399Z,15.52
2022-08-24T04:19:58.260Z,15.50
2022-08-24T04:22:30.297Z,15.49
2022-08-24T04:24:56.958Z,15.45
2022-08-24T04:27:23.910Z,15.43
2022-08-24T04:29:51.140Z,15.41
2022-08-24T04:32:18.548Z,15.41
2022-08-24T04:34:45.771Z,15.40
2022-08-24T04:37:14.628Z,15.41
2022-08-24T04:39:42.160Z,15.41
2022-08-24T04:42:22.452Z,15.41
2022-08-24T04:44:50.471Z,15.43
2022-08-24T04:47:19.802Z,15.42
2022-08-24T04:49:47.650Z,15.43
2022-08-24T04:52:14.513Z,15.45
2022-08-24T04:54:42.342Z,15.49
2022-08-24T04:57:14.680Z,15.50
2022-08-24T04:59:46.706Z,15.52
2022-08-24T05:02:13.284Z,15.56
2022-08-24T05:04:40.049Z,15.59
2022-08-24T05:07:07.403Z,15.64
2022-08-24T05:09:34.197Z,15.66
2022-08-24T05:12:02.543Z,15.70
2022-08-24T05:14:34.051Z,15.74
2022-08-24T05:17:00.600Z,15.78
2022-08-24T05:19:30.532Z,15.88
2022-08-24T05:21:57.061Z,15.95
2022-08-24T05:24:23.700Z,16.02
2022-08-24T05:26:52.315Z,16.10
2022-08-24T05:29:20.482Z,16.17
2022-08-24T05:31:49.463Z,16.26
2022-08-24T05:34:16.563Z,16.33
2022-08-24T05:36:43.922Z,16.41
2022-08-24T05:39:26.880Z,16.49
2022-08-24T05:41:55.466Z,16.59
2022-08-24T05:44:30.666Z,16.67
2022-08-24T05:47:01.060Z,16.76
2022-08-24T05:49:28.000Z,16.83
2022-08-24T05:51:55.109Z,16.91
2022-08-24T05:54:23.182Z,16.99
2022-08-24T05:57:04.730Z,17.08
2022-08-24T05:59:37.799Z,17.17
2022-08-24T06:02:10.015Z,17.25
2022-08-24T06:04:38.170Z,17.34
2022-08-24T06:07:10.114Z,17.41
2022-08-24T06:09:39.495Z,17.50
2022-08-24T06:12:07.086Z,17.58
2022-08-24T06:14:34.592Z,17.67
2022-08-24T06:17:05.915Z,17.77
2022-08-24T06:19:33.301Z,17.84
2022-08-24T06:22:01.407Z,17.93
2022-08-24T06:24:47.980Z,18.01
2022-08-24T06:27:23.268Z,18.08
2022-08-24T06:29:57.122Z,18.17
2022-08-24T06:32:43.939Z,18.25
2022-08-24T06:35:16.675Z,18.33
2022-08-24T06:37:43.332Z,18.41
2022-08-24T06:40:10.994Z,18.49
2022-08-24T06:42:38.089Z,18.61
2022-08-24T06:45:16.401Z,18.69
2022-08-24T06:47:44.315Z,18.78
2022-08-24T06:50:11.443Z,18.86
2022-08-24T06:52:39.572Z,18.95
2022-08-24T06:55:07.034Z,19.05
2022-08-24T06:57:33.685Z,19.14
2022-08-24T07:00:00.168Z,19.23
2022-08-24T07:02:26.957Z,19.31
2022-08-24T07:04:53.668Z,19.38
2022-08-24T07:07:39.064Z,19.48
2022-08-24T07:10:09.266Z,19.57
2022-08-24T07:12:36.736Z,19.67
2022-08-24T07:15:04.409Z,19.77
2022-08-24T07:17:38.302Z,19.88
2022-08-24T07:20:06.198Z,19.98
2022-08-24T07:22:55.543Z,20.10
2022-08-24T07:25:22.378Z,20.17
2022-08-24T07:27:52.260Z,20.28
2022-08-24T07:30:27.054Z,20.37
2022-08-24T07:32:57.265Z,20.46
2022-08-24T07:35:26.735Z,20.55
2022-08-24T07:37:55.360Z,20.63
2022-08-24T07:40:23.673Z,20.71
2022-08-24T07:42:52.362Z,20.79
2022-08-24T07:45:19.834Z,20.91
2022-08-24T07:50:37.336Z,21.08
2022-08-24T07:53:05.213Z,21.19
2022-08-24T07:55:33.145Z,21.29
2022-08-24T07:58:00.313Z,21.39
2022-08-24T08:00:27.028Z,21.54
2022-08-24T08:02:59.186Z,21.63
2022-08-24T08:05:25.825Z,21.73
2022-08-24T08:07:53.816Z,21.83
2022-08-24T08:10:21.891Z,21.91
2022-08-24T08:12:48.771Z,21.98
2022-08-24T08:15:15.258Z,22.07
2022-08-24T08:17:56.050Z,22.16
2022-08-24T08:20:23.491Z,22.22
2022-08-24T08:23:09.303Z,22.31
2022-08-24T08:25:54.618Z,22.40
2022-08-24T08:28:35.533Z,22.49
2022-08-24T08:31:04.114Z,22.57
2022-08-24T08:33:33.219Z,22.62
2022-08-24T08:36:04.825Z,22.67
2022-08-24T08:38:32.436Z,22.71
2022-08-24T08:41:01.894Z,22.78
2022-08-24T08:43:39.580Z,22.84
2022-08-24T08:46:24.214Z,22.90
2022-08-24T08:49:59.030Z,22.99
2022-08-24T08:52:34.928Z,23.04
2022-08-24T08:55:21.893Z,23.10
2022-08-24T08:58:06.507Z,23.18
2022-08-24T09:01:07.606Z,23.24
2022-08-24T09:03:52.599Z,23.30
2022-08-24T09:07:08.445Z,23.39
2022-08-24T09:09:52.563Z,23.43
2022-08-24T09:12:43.557Z,23.47
2022-08-24T09:15:45.899Z,23.53
2022-08-24T09:18:49.665Z,23.62
2022-08-24T09:21:38.162Z,23.71
2022-08-24T09:24:39.958Z,23.78
2022-08-24T09:27:43.296Z,23.85
2022-08-24T09:30:23.467Z,23.91
2022-08-24T09:33:13.690Z,23.99
2022-08-24T09:35:57.369Z,24.05
2022-08-24T09:38:42.699Z,24.10
2022-08-24T09:41:28.187Z,24.12
2022-08-24T09:44:27.776Z,24.20
2022-08-24T09:47:20.648Z,24.29
2022-08-24T09:50:05.894Z,24.36
2022-08-24T09:52:58.103Z,24.39
2022-08-24T09:55:52.713Z,24.44
2022-08-24T09:58:57.540Z,24.49
2022-08-24T10:01:41.745Z,24.52
2022-08-24T10:04:34.676Z,24.59
2022-08-24T10:07:18.230Z,24.65
2022-08-24T10:09:50.509Z,24.69
2022-08-24T10:12:46.849Z,24.72
2022-08-24T10:15:28.091Z,24.76
2022-08-24T10:18:09.884Z,24.80
2022-08-24T10:21:04.464Z,24.84
2022-08-24T10:23:55.126Z,24.88
2022-08-24T10:26:59.301Z,24.95
2022-08-24T10:29:58.882Z,25.00
2022-08-24T10:32:41.094Z,24.99
2022-08-24T10:35:28.594Z,25.00
2022-08-24T10:38:53.061Z,25.04
2022-08-24T10:41:19.562Z,25.12
2022-08-24T10:44:24.238Z,25.18
2022-08-24T10:46:59.574Z,25.24
2022-08-24T10:49:37.332Z,25.25
2022-08-24T10:52:22.141Z,25.28
2022-08-24T10:54:48.837Z,25.29
2022-08-24T10:57:28.495Z,25.29
2022-08-24T11:00:18.286Z,25.36
2022-08-24T11:02:49.824Z,25.41
2022-08-24T11:05:38.281Z,25.47
2022-08-24T11:08:06.956Z,25.52
2022-08-24T11:10:37.413Z,25.59
2022-08-24T11:13:24.778Z,25.63
2022-08-24T11:15:54.484Z,25.69
2022-08-24T11:18:22.499Z,25.74
2022-08-24T11:20:52.922Z,25.79
2022-08-24T11:23:29.609Z,25.84
2022-08-24T11:26:03.988Z,25.87
2022-08-24T11:28:39.041Z,25.89
2022-08-24T11:31:11.068Z,25.95
2022-08-24T11:33:50.724Z,26.04
2022-08-24T11:36:21.206Z,26.12
2022-08-24T11:38:49.523Z,26.21
2022-08-24T11:41:33.027Z,26.25
2022-08-24T11:44:16.700Z,26.31
2022-08-24T11:46:57.477Z,26.32
2022-08-24T11:49:48.527Z,26.35
2022-08-24T11:52:51.714Z,26.38
2022-08-24T11:55:57.589Z,26.42
2022-08-24T11:58:45.212Z,26.48
2022-08-24T12:01:32.904Z,26.48
2022-08-24T12:04:26.038Z,26.51
2022-08-24T12:07:17.000Z,26.54
2022-08-24T12:10:28.552Z,26.56
2022-08-24T12:13:06.535Z,26.63
2022-08-24T12:15:52.133Z,26.65
2022-08-24T12:18:29.518Z,26.67
2022-08-24T12:20:57.882Z,26.71
2022-08-24T12:23:27.256Z,26.74
2022-08-24T12:26:01.983Z,26.76
2022-08-24T12:28:37.419Z,26.80
2022-08-24T12:31:12.913Z,26.81
2022-08-24T12:33:46.334Z,26.85
2022-08-24T12:36:36.417Z,26.92
2022-08-24T12:39:13.592Z,26.98
2022-08-24T12:41:58.012Z,27.03
2022-08-24T12:44:31.151Z,27.11
2022-08-24T12:46:57.882Z,27.13
2022-08-24T12:49:33.715Z,27.13
2022-08-24T12:52:03.411Z,27.12
2022-08-24T12:54:56.346Z,27.12
2022-08-24T12:57:39.635Z,27.15
2022-08-24T13:00:37.040Z,27.17
2022-08-24T13:03:08.095Z,27.19
2022-08-24T13:05:48.471Z,27.24
2022-08-24T13:08:32.118Z,27.32
2022-08-24T13:11:07.124Z,27.36
2022-08-24T13:13:47.910Z,27.38
2022-08-24T13:16:51.743Z,27.39
2022-08-24T13:19:40.239Z,27.43
2022-08-24T13:22:09.953Z,27.47
2022-08-24T13:24:37.624Z,27.49
2022-08-24T13:27:13.300Z,27.50
2022-08-24T13:29:49.217Z,27.50
2022-08-24T13:32:22.586Z,27.48
2022-08-24T13:34:51.343Z,27.52
2022-08-24T13:37:23.524Z,27.54
2022-08-24T13:40:09.889Z,27.58
2022-08-24T13:43:03.011Z,27.59
2022-08-24T13:45:46.663Z,27.60
2022-08-24T13:48:18.340Z,27.62
2022-08-24T13:50:56.624Z,27.63
2022-08-24T13:54:18.838Z,27.63
2022-08-24T13:57:06.171Z,27.66
2022-08-24T13:59:59.116Z,27.67
2022-08-24T14:02:40.160Z,27.70
2022-08-24T14:05:28.670Z,27.74
2022-08-24T14:08:44.176Z,27.72
2022-08-24T14:11:32.659Z,27.76
2022-08-24T14:14:21.166Z,27.75
2022-08-24T14:17:40.431Z,27.76
2022-08-24T14:20:41.181Z,27.79
2022-08-24T14:23:37.009Z,27.84
2022-08-24T14:26:34.573Z,27.83
2022-08-24T14:29:19.505Z,27.87
2022-08-24T14:31:58.604Z,27.89
2022-08-24T14:34:42.011Z,27.89
2022-08-24T14:37:14.404Z,27.96
2022-08-24T14:40:23.477Z,27.97
2022-08-24T14:42:56.518Z,28.01
2022-08-24T14:45:22.993Z,28.03
2022-08-24T14:48:11.400Z,28.00
2022-08-24T14:50:43.326Z,28.01
2022-08-24T14:53:59.567Z,28.01
2022-08-24T14:56:50.644Z,28.05
2022-08-24T14:59:42.265Z,28.05
2022-08-24T15:02:46.396Z,28.07
2022-08-24T15:05:25.436Z,28.10
2022-08-24T15:08:26.753Z,28.12
2022-08-24T15:11:02.396Z,28.13
2022-08-24T15:13:46.938Z,28.13
2022-08-24T15:16:14.752Z,28.15
2022-08-24T15:19:02.068Z,28.19
2022-08-24T15:21:49.590Z,28.20
2022-08-24T15:24:29.006Z,28.19
2022-08-24T15:27:34.549Z,28.22
2022-08-24T15:30:05.052Z,28.25
2022-08-24T15:32:51.775Z,28.31
2022-08-24T15:35:31.241Z,28.35
2022-08-24T15:37:58.133Z,28.40
2022-08-24T15:40:29.795Z,28.47
2022-08-24T15:43:04.153Z,28.62
2022-08-24T15:45:32.618Z,28.82
2022-08-24T15:48:01.566Z,29.24
2022-08-24T15:50:33.480Z,30.15
2022-08-24T15:53:08.319Z,31.62
2022-08-24T15:55:38.718Z,32.96
2022-08-24T15:58:20.775Z,34.08
2022-08-24T16:01:06.988Z,35.04
2022-08-24T16:03:46.979Z,36.10
2022-08-24T16:06:25.955Z,36.91
2022-08-24T16:09:13.023Z,37.54
2022-08-24T16:11:48.938Z,38.15
2022-08-24T16:14:31.188Z,39.13
2022-08-24T16:16:58.909Z,40.20
2022-08-24T16:19:33.357Z,41.12
2022-08-24T16:22:09.025Z,41.82
2022-08-24T16:24:38.745Z,42.51
2022-08-24T16:27:10.515Z,43.05
2022-08-24T16:29:37.201Z,43.46
2022-08-24T16:32:22.081Z,43.73
2022-08-24T16:35:09.726Z,44.14
2022-08-24T16:37:37.371Z,44.37
2022-08-24T16:40:05.281Z,44.41
2022-08-24T16:42:32.949Z,44.30
2022-08-24T16:44:59.584Z,44.14
2022-08-24T16:47:28.148Z,44.08
2022-08-24T16:49:55.203Z,44.06
2022-08-24T16:52:21.983Z,44.11
2022-08-24T16:54:49.005Z,44.02
2022-08-24T16:57:18.798Z,43.90
2022-08-24T16:59:48.209Z,43.73
2022-08-24T17:02:17.020Z,43.42
2022-08-24T17:04:44.203Z,43.01
2022-08-24T17:07:13.754Z,42.36
2022-08-24T17:09:43.168Z,41.49
2022-08-24T17:12:10.061Z,40.75
2022-08-24T17:14:39.372Z,39.99
2022-08-24T17:17:07.788Z,39.29
2022-08-24T17:19:35.555Z,38.31
2022-08-24T17:22:03.673Z,37.26
2022-08-24T17:24:30.240Z,36.38
2022-08-24T17:26:56.883Z,35.66
2022-08-24T17:29:24.899Z,34.98
2022-08-24T17:31:51.847Z,34.42
2022-08-24T17:34:21.239Z,33.87
2022-08-24T17:36:49.598Z,33.37
2022-08-24T17:39:17.936Z,32.92
2022-08-24T17:41:44.447Z,32.50
2022-08-24T17:44:25.074Z,32.11
2022-08-24T17:46:54.163Z,31.74
2022-08-24T17:49:21.205Z,31.40
2022-08-24T17:51:49.232Z,31.11
2022-08-24T17:54:17.237Z,30.83
2022-08-24T17:56:46.480Z,30.56
2022-08-24T17:59:20.393Z,30.29
2022-08-24T18:01:48.073Z,30.04
2022-08-24T18:04:14.995Z,29.80
2022-08-24T18:06:41.839Z,29.59
2022-08-24T18:09:26.505Z,29.37
2022-08-24T18:11:53.033Z,29.13
2022-08-24T18:14:19.689Z,28.94
2022-08-24T18:16:50.139Z,28.74
2022-08-24T18:19:22.876Z,28.52
2022-08-24T18:21:51.713Z,28.34
2022-08-24T18:24:18.410Z,28.16
2022-08-24T18:26:48.024Z,27.98
2022-08-24T18:29:18.801Z,27.81
2022-08-24T18:31:48.217Z,27.66
2022-08-24T18:34:21.753Z,27.49
2022-08-24T18:36:48.759Z,27.35
2022-08-24T18:39:16.167Z,27.19
2022-08-24T18:41:49.514Z,27.05
2022-08-24T18:44:21.721Z,26.91
2022-08-24T18:46:49.058Z,26.79
2022-08-24T18:49:17.805Z,26.66
2022-08-24T18:51:48.022Z,26.54
2022-08-24T18:54:21.215Z,26.42
2022-08-24T18:56:48.775Z,26.29
2022-08-24T18:59:18.495Z,26.18
2022-08-24T19:02:05.781Z,26.06
2022-08-24T19:04:33.178Z,25.94
2022-08-24T19:07:00.749Z,25.84
2022-08-24T19:09:32.046Z,25.73
2022-08-24T19:12:00.751Z,25.64
2022-08-24T19:14:27.261Z,25.55
2022-08-24T19:16:53.816Z,25.45
2022-08-24T19:19:22.441Z,25.36
2022-08-24T19:21:49.410Z,25.25
2022-08-24T19:24:19.019Z,25.16
2022-08-24T19:26:45.527Z,25.07
2022-08-24T19:29:12.042Z,24.98
2022-08-24T19:31:38.780Z,24.90
2022-08-24T19:34:06.022Z,24.82
2022-08-24T19:36:32.907Z,24.75
2022-08-24T19:38:59.778Z,24.66
2022-08-24T19:41:36.464Z,24.58
2022-08-24T19:44:27.504Z,24.48
2022-08-24T19:46:55.541Z,24.39
2022-08-24T19:49:22.189Z,24.32
2022-08-24T19:51:49.620Z,24.24
2022-08-24T19:54:16.629Z,24.17
2022-08-24T19:56:43.160Z,24.10
2022-08-24T19:59:24.535Z,24.02
2022-08-24T20:01:51.413Z,23.96
2022-08-24T20:04:18.131Z,23.89
2022-08-24T20:06:45.779Z,23.82
2022-08-24T20:09:12.332Z,23.75
2022-08-24T20:11:39.563Z,23.66
2022-08-24T20:14:06.807Z,23.60
2022-08-24T20:16:42.095Z,23.53
2022-08-24T20:19:11.268Z,23.45
2022-08-24T20:21:38.580Z,23.38
2022-08-24T20:24:06.333Z,23.30
2022-08-24T20:26:39.244Z,23.24
2022-08-24T20:29:05.961Z,23.19
2022-08-24T20:31:32.659Z,23.12
2022-08-24T20:33:59.434Z,23.05
2022-08-24T20:36:36.326Z,22.98
2022-08-24T20:39:05.222Z,22.92
2022-08-24T20:41:32.175Z,22.86
2022-08-24T20:43:59.157Z,22.81
2022-08-24T20:46:27.003Z,22.75
2022-08-24T20:48:55.493Z,22.71
2022-08-24T20:51:24.349Z,22.65
2022-08-24T20:53:50.953Z,22.61
2022-08-24T20:56:31.225Z,22.55
2022-08-24T20:59:01.212Z,22.51
2022-08-24T21:01:27.784Z,22.46
2022-08-24T21:03:54.373Z,22.41
2022-08-24T21:06:21.333Z,22.39
2022-08-24T21:08:50.682Z,22.33
2022-08-24T21:11:17.994Z,22.29
2022-08-24T21:13:44.630Z,22.25
2022-08-24T21:16:13.663Z,22.20
2022-08-24T21:18:41.487Z,22.17
2022-08-24T21:21:08.566Z,22.14
2022-08-24T21:23:35.625Z,22.11
2022-08-24T21:26:06.511Z,22.07
2022-08-24T21:28:35.628Z,22.02
2022-08-24T21:31:06.183Z,21.99
2022-08-24T21:33:52.631Z,21.94
2022-08-24T21:36:23.533Z,21.91
2022-08-24T21:38:52.102Z,21.88
2022-08-24T21:41:21.698Z,21.83
2022-08-24T21:43:48.304Z,21.79
2022-08-24T21:46:15.178Z,21.75
2022-08-24T21:48:41.704Z,21.72
2022-08-24T21:51:08.395Z,21.67
2022-08-24T21:53:34.918Z,21.64
2022-08-24T21:56:02.353Z,21.59
2022-08-24T21:58:29.504Z,21.57
2022-08-24T22:00:59.601Z,21.54
2022-08-24T22:03:34.707Z,21.51
2022-08-24T22:06:10.941Z,21.47
2022-08-24T22:08:39.704Z,21.43
2022-08-24T22:11:06.380Z,21.40
2022-08-24T22:13:34.019Z,21.37
2022-08-24T22:16:00.631Z,21.34
2022-08-24T22:18:27.207Z,21.28
2022-08-24T22:20:53.687Z,21.26
2022-08-24T22:23:20.176Z,21.22
2022-08-24T22:25:53.530Z,21.19
2022-08-24T22:28:20.982Z,21.17
2022-08-24T22:30:48.924Z,21.12
2022-08-24T22:33:16.183Z,21.07
2022-08-24T22:35:44.953Z,21.03
2022-08-24T22:38:12.674Z,20.99
2022-08-24T22:40:39.508Z,20.93
2022-08-24T22:43:06.176Z,20.90
2022-08-24T22:45:32.704Z,20.85
2022-08-24T22:47:59.212Z,20.79
2022-08-24T22:50:25.764Z,20.75
2022-08-24T22:52:53.329Z,20.71
2022-08-24T22:55:20.324Z,20.67
2022-08-24T22:57:51.051Z,20.62
2022-08-24T23:00:18.463Z,20.57
2022-08-24T23:02:44.974Z,20.53
2022-08-24T23:05:11.555Z,20.48
2022-08-24T23:07:38.074Z,20.42
2022-08-24T23:10:06.195Z,20.40
2022-08-24T23:12:33.045Z,20.36
2022-08-24T23:15:00.100Z,20.32
2022-08-24T23:17:26.758Z,20.30
2022-08-24T23:20:06.466Z,20.27
2022-08-24T23:22:36.592Z,20.25
2022-08-24T23:25:05.740Z,20.21
2022-08-24T23:27:38.217Z,20.18
2022-08-24T23:30:07.828Z,20.14
2022-08-24T23:32:34.408Z,20.11
2022-08-24T23:35:01.075Z,20.09
2022-08-24T23:37:28.097Z,20.06
2022-08-24T23:39:54.636Z,20.04
2022-08-24T23:42:21.170Z,20.02
2022-08-24T23:44:47.635Z,20.02
2022-08-24T23:47:14.214Z,20.01
2022-08-24T23:49:41.707Z,19.99
2022-08-24T23:52:08.807Z,19.98
2022-08-24T23:54:52.799Z,19.97
2022-08-24T23:57:19.313Z,19.97
2022-08-24T23:59:45.800Z,19.96
